Time;durP1;ratioP1;P1;durP2;ratioP2;P2;SDS_P1;SDS_P2;PMS_P1;PMS_P2;Temp;Humidity;BMP_temperature;BMP_pressure;BME280_temperature;BME280_humidity;BME280_pressure;Samples;Min_cycle;Max_cycle;Signal;HPM_P1;HPM_P2
2022/03/14 00:00:24;;;;;;;12.13;10.70;;;;;;;;;;2083354;28;20180;-61
2022/03/14 00:01:24;;;;;;;12.15;10.82;;;;;;;;;;2083704;28;20290;-59
2022/03/14 00:02:25;;;;;;;12.77;11.48;;;;;;;;;;2081178;28;20680;-59
2022/03/14 00:03:25;;;;;;;11.70;10.50;;;;;;;;;;2075972;28;20280;-56
2022/03/14 00:04:26;;;;;;;12.63;11.43;;;;;;;;;;2083337;28;20167;-60
2022/03/14 00:05:31;;;;;;;12.50;11.27;;;;;;;;;;2082983;28;20175;-60
2022/03/14 00:06:32;;;;;;;12.00;10.75;;;;;;;;;;2077441;28;20290;-58
2022/03/14 00:07:35;;;;;;;11.65;10.55;;;;;;;;;;2073284;28;20173;-60
2022/03/14 00:08:36;;;;;;;12.90;11.60;;;;;;;;;;2058181;28;20182;-59
2022/03/14 00:09:36;;;;;;;12.23;11.02;;;;;;;;;;2072851;28;20197;-59
2022/03/14 00:10:36;;;;;;;12.07;10.85;;;;;;;;;;2083300;28;20236;-60
2022/03/14 00:11:37;;;;;;;12.27;11.07;;;;;;;;;;2068269;28;20233;-58
2022/03/14 00:12:39;;;;;;;11.82;10.63;;;;;;;;;;2082446;28;20183;-58
2022/03/14 00:13:40;;;;;;;13.07;11.20;;;;;;;;;;2082644;28;20214;-59
2022/03/14 00:14:40;;;;;;;12.60;11.38;;;;;;;;;;2077749;28;20180;-59
2022/03/14 00:15:41;;;;;;;11.95;10.85;;;;;;;;;;2083235;28;20180;-58
2022/03/14 00:16:45;;;;;;;13.18;10.88;;;;;;;;;;2083034;28;20180;-57
2022/03/14 00:17:47;;;;;;;12.32;11.13;;;;;;;;;;2076205;28;20193;-56
2022/03/14 00:18:51;;;;;;;12.90;10.93;;;;;;;;;;2083106;28;20184;-57
2022/03/14 00:19:51;;;;;;;13.13;11.40;;;;;;;;;;2082956;28;20639;-58
2022/03/14 00:20:52;;;;;;;14.30;11.60;;;;;;;;;;2080626;28;20176;-55
2022/03/14 00:21:52;;;;;;;11.95;10.75;;;;;;;;;;2076327;28;20169;-57
2022/03/14 00:22:59;;;;;;;12.70;11.30;;;;;;;;;;2080565;28;20191;-55
2022/03/14 00:23:59;;;;;;;11.65;10.48;;;;;;;;;;2077370;28;20242;-62
2022/03/14 00:24:59;;;;;;;11.50;10.40;;;;;;;;;;2081204;28;20169;-58
2022/03/14 00:25:59;;;;;;;12.30;11.07;;;;;;;;;;2082958;28;20172;-56
2022/03/14 00:27:01;;;;;;;12.23;11.07;;;;;;;;;;2082151;28;20160;-56
2022/03/14 00:28:01;;;;;;;11.25;10.25;;;;;;;;;;2085488;28;20176;-57
2022/03/14 00:29:03;;;;;;;12.20;11.00;;;;;;;;;;2077921;28;20169;-60
2022/03/14 00:30:04;;;;;;;13.05;11.05;;;;;;;;;;2069862;28;20628;-58
2022/03/14 00:31:07;;;;;;;12.23;10.80;;;;;;;;;;2078798;28;20180;-56
2022/03/14 00:32:07;;;;;;;12.32;11.13;;;;;;;;;;2077788;28;20165;-60
2022/03/14 00:33:08;;;;;;;11.98;10.88;;;;;;;;;;2078763;28;20188;-57
2022/03/14 00:34:09;;;;;;;12.23;11.13;;;;;;;;;;2082428;28;20180;-56
2022/03/14 00:35:10;;;;;;;12.30;11.10;;;;;;;;;;2081172;28;20601;-59
2022/03/14 00:36:10;;;;;;;11.50;10.40;;;;;;;;;;2082354;28;20188;-57
2022/03/14 00:37:11;;;;;;;13.90;12.52;;;;;;;;;;2080491;28;20180;-55
2022/03/14 00:38:11;;;;;;;12.57;10.65;;;;;;;;;;2082502;28;20263;-57
2022/03/14 00:39:13;;;;;;;11.30;10.27;;;;;;;;;;2082492;28;20196;-57
2022/03/14 00:40:14;;;;;;;12.13;10.93;;;;;;;;;;2083037;28;20180;-58
2022/03/14 00:41:21;;;;;;;10.88;9.77;;;;;;;;;;2072463;28;20184;-58
2022/03/14 00:42:22;;;;;;;10.68;9.68;;;;;;;;;;2079484;28;20625;-59
2022/03/14 00:43:23;;;;;;;11.60;10.45;;;;;;;;;;2083284;28;20290;-59
2022/03/14 00:44:23;;;;;;;10.98;9.88;;;;;;;;;;2079256;28;20629;-60
2022/03/14 00:45:24;;;;;;;11.80;10.60;;;;;;;;;;2065894;28;20196;-58
2022/03/14 00:46:24;;;;;;;12.32;11.18;;;;;;;;;;2069053;28;20761;-58
2022/03/14 00:47:24;;;;;;;11.60;10.50;;;;;;;;;;2080861;28;20184;-58
2022/03/14 00:48:25;;;;;;;12.20;10.98;;;;;;;;;;2081579;28;20255;-59
2022/03/14 00:49:25;;;;;;;13.43;11.40;;;;;;;;;;2073366;28;20219;-57
2022/03/14 00:50:26;;;;;;;13.48;11.52;;;;;;;;;;2073257;28;20193;-57
2022/03/14 00:51:26;;;;;;;12.13;10.93;;;;;;;;;;2082449;28;20200;-60
2022/03/14 00:52:26;;;;;;;11.73;10.52;;;;;;;;;;2081301;28;20219;-59
2022/03/14 00:53:27;;;;;;;11.65;10.55;;;;;;;;;;2084708;28;20187;-58
2022/03/14 00:54:27;;;;;;;11.60;10.48;;;;;;;;;;2079883;28;20241;-58
2022/03/14 00:55:27;;;;;;;11.35;10.25;;;;;;;;;;2076969;28;20666;-57
2022/03/14 00:56:28;;;;;;;13.43;12.13;;;;;;;;;;2077995;28;20196;-58
2022/03/14 00:57:28;;;;;;;13.48;12.10;;;;;;;;;;2082762;28;20188;-59
2022/03/14 00:58:30;;;;;;;12.15;11.02;;;;;;;;;;2082978;28;20168;-58
2022/03/14 00:59:34;;;;;;;11.40;10.23;;;;;;;;;;2082664;28;20188;-60
2022/03/14 01:00:34;;;;;;;11.40;10.30;;;;;;;;;;2077031;28;20208;-57
2022/03/14 01:01:34;;;;;;;10.90;9.63;;;;;;;;;;2073958;28;20169;-59
2022/03/14 01:02:35;;;;;;;12.38;10.52;;;;;;;;;;2067659;28;20217;-57
2022/03/14 01:03:35;;;;;;;11.90;10.70;;;;;;;;;;2074938;28;20256;-59
2022/03/14 01:04:35;;;;;;;14.45;11.68;;;;;;;;;;2083985;28;20204;-60
2022/03/14 01:05:36;;;;;;;11.93;10.77;;;;;;;;;;2083681;28;20236;-58
2022/03/14 01:06:41;;;;;;;11.82;10.63;;;;;;;;;;2076731;28;20175;-57
2022/03/14 01:07:41;;;;;;;12.02;10.88;;;;;;;;;;2083832;28;20168;-58
2022/03/14 01:08:42;;;;;;;11.25;10.20;;;;;;;;;;2085350;28;20167;-58
2022/03/14 01:09:42;;;;;;;17.48;10.35;;;;;;;;;;2085636;28;21060;-58
2022/03/14 01:10:43;;;;;;;10.93;9.70;;;;;;;;;;2085246;28;20208;-61
2022/03/14 01:11:43;;;;;;;11.70;10.50;;;;;;;;;;2085609;28;20175;-59
2022/03/14 01:12:45;;;;;;;13.60;11.63;;;;;;;;;;2085755;28;20239;-61
2022/03/14 01:13:45;;;;;;;12.57;11.02;;;;;;;;;;2086349;28;20264;-60
2022/03/14 01:14:45;;;;;;;12.00;10.80;;;;;;;;;;2086210;28;20199;-58
2022/03/14 01:15:46;;;;;;;11.70;10.65;;;;;;;;;;2081810;28;20246;-59
2022/03/14 01:16:47;;;;;;;11.80;10.60;;;;;;;;;;2082904;28;20191;-60
2022/03/14 01:17:47;;;;;;;12.35;11.15;;;;;;;;;;2078263;28;20237;-61
2022/03/14 01:18:48;;;;;;;12.30;11.10;;;;;;;;;;2085822;28;20164;-57
2022/03/14 01:19:48;;;;;;;11.38;10.27;;;;;;;;;;2083589;28;20724;-58
2022/03/14 01:20:49;;;;;;;13.73;12.27;;;;;;;;;;2083198;28;20274;-59
2022/03/14 01:21:49;;;;;;;17.52;11.57;;;;;;;;;;2071536;28;20247;-59
2022/03/14 01:22:49;;;;;;;11.45;10.45;;;;;;;;;;2080323;28;20259;-59
2022/03/14 01:23:50;;;;;;;11.93;10.82;;;;;;;;;;2081896;28;20172;-57
2022/03/14 01:24:50;;;;;;;12.27;10.80;;;;;;;;;;2081730;28;20617;-57
2022/03/14 01:25:51;;;;;;;11.48;10.27;;;;;;;;;;2081984;28;20175;-56
2022/03/14 01:26:52;;;;;;;12.30;11.10;;;;;;;;;;2081836;28;20180;-58
2022/03/14 01:27:52;;;;;;;12.60;11.35;;;;;;;;;;2085296;28;20155;-56
2022/03/14 01:28:53;;;;;;;14.50;11.35;;;;;;;;;;2080730;28;20195;-59
2022/03/14 01:29:53;;;;;;;14.20;11.82;;;;;;;;;;2075628;28;20642;-54
2022/03/14 01:30:53;;;;;;;12.40;11.15;;;;;;;;;;2081044;28;20238;-59
2022/03/14 01:31:54;;;;;;;12.50;11.20;;;;;;;;;;2083658;28;20674;-57
2022/03/14 01:32:55;;;;;;;12.63;10.93;;;;;;;;;;2084151;28;20152;-56
2022/03/14 01:33:55;;;;;;;12.18;10.98;;;;;;;;;;2076369;28;20187;-54
2022/03/14 01:34:57;;;;;;;12.65;11.45;;;;;;;;;;2079779;28;20172;-58
2022/03/14 01:35:57;;;;;;;12.30;10.88;;;;;;;;;;2074079;28;20184;-60
2022/03/14 01:36:58;;;;;;;12.30;11.07;;;;;;;;;;2075933;28;20271;-60
2022/03/14 01:37:58;;;;;;;11.93;10.70;;;;;;;;;;2077514;28;20237;-61
2022/03/14 01:38:59;;;;;;;12.30;11.00;;;;;;;;;;2081032;28;20614;-57
2022/03/14 01:39:59;;;;;;;12.15;10.55;;;;;;;;;;2081196;28;20552;-57
2022/03/14 01:40:59;;;;;;;12.52;11.32;;;;;;;;;;2081062;28;20183;-58
2022/03/14 01:42:00;;;;;;;12.43;11.02;;;;;;;;;;2081286;28;20180;-58
2022/03/14 01:43:00;;;;;;;12.20;11.10;;;;;;;;;;2079909;28;20172;-61
2022/03/14 01:44:01;;;;;;;12.52;11.23;;;;;;;;;;2076524;28;20188;-58
2022/03/14 01:45:04;;;;;;;11.23;10.02;;;;;;;;;;2074570;28;20176;-55
2022/03/14 01:46:04;;;;;;;11.45;10.45;;;;;;;;;;2081088;28;20176;-56
2022/03/14 01:47:06;;;;;;;11.38;10.18;;;;;;;;;;2081052;28;20180;-58
2022/03/14 01:48:07;;;;;;;11.70;10.55;;;;;;;;;;2081347;28;20165;-57
2022/03/14 01:49:07;;;;;;;12.80;10.70;;;;;;;;;;2080689;28;20215;-57
2022/03/14 01:50:08;;;;;;;12.00;10.70;;;;;;;;;;2081639;28;20168;-58
2022/03/14 01:51:08;;;;;;;11.55;10.45;;;;;;;;;;2080628;28;20249;-59
2022/03/14 01:52:08;;;;;;;12.70;11.48;;;;;;;;;;2080506;28;20207;-55
2022/03/14 01:53:09;;;;;;;12.02;10.38;;;;;;;;;;2081421;28;20164;-60
2022/03/14 01:54:09;;;;;;;12.25;11.15;;;;;;;;;;2081625;28;20188;-57
2022/03/14 01:55:10;;;;;;;11.98;10.98;;;;;;;;;;2078789;28;20179;-57
2022/03/14 01:56:12;;;;;;;11.93;10.73;;;;;;;;;;2080850;28;20759;-56
2022/03/14 01:57:16;;;;;;;12.82;10.25;;;;;;;;;;2081634;28;20238;-58
2022/03/14 01:58:16;;;;;;;11.57;10.35;;;;;;;;;;2079894;28;20262;-58
2022/03/14 01:59:17;;;;;;;10.95;10.02;;;;;;;;;;2075018;28;20693;-60
2022/03/14 02:00:18;;;;;;;12.25;10.95;;;;;;;;;;2082464;28;20178;-58
2022/03/14 02:01:21;;;;;;;11.73;10.63;;;;;;;;;;2084786;28;20825;-58
2022/03/14 02:02:21;;;;;;;12.63;10.75;;;;;;;;;;2072577;28;20264;-59
2022/03/14 02:03:22;;;;;;;10.98;9.98;;;;;;;;;;2076857;28;20208;-57
2022/03/14 02:04:22;;;;;;;12.63;11.38;;;;;;;;;;2080430;28;20543;-62
2022/03/14 02:05:23;;;;;;;12.40;11.10;;;;;;;;;;2081228;28;20171;-59
2022/03/14 02:06:23;;;;;;;11.32;10.23;;;;;;;;;;2073232;28;20646;-56
2022/03/14 02:07:24;;;;;;;11.45;10.35;;;;;;;;;;2078781;28;20178;-60
2022/03/14 02:08:25;;;;;;;14.18;11.38;;;;;;;;;;2077525;28;20164;-56
2022/03/14 02:09:25;;;;;;;12.50;11.20;;;;;;;;;;2080312;28;20600;-58
2022/03/14 02:10:25;;;;;;;12.00;10.80;;;;;;;;;;2081509;28;20179;-57
2022/03/14 02:11:26;;;;;;;12.73;10.63;;;;;;;;;;2080907;28;20168;-57
2022/03/14 02:12:26;;;;;;;12.30;11.00;;;;;;;;;;2081397;28;20180;-58
2022/03/14 02:13:26;;;;;;;12.25;10.98;;;;;;;;;;2080938;28;20207;-58
2022/03/14 02:14:27;;;;;;;11.15;10.13;;;;;;;;;;2075902;28;20196;-60
2022/03/14 02:15:27;;;;;;;14.20;10.38;;;;;;;;;;2080399;28;20172;-56
2022/03/14 02:16:27;;;;;;;11.82;10.63;;;;;;;;;;2072965;28;20692;-56
2022/03/14 02:17:27;;;;;;;12.45;11.18;;;;;;;;;;2064089;28;20173;-54
2022/03/14 02:18:29;;;;;;;11.60;10.40;;;;;;;;;;2072751;28;20181;-58
2022/03/14 02:19:29;;;;;;;12.68;11.45;;;;;;;;;;2080869;28;20339;-56
2022/03/14 02:20:29;;;;;;;11.88;10.77;;;;;;;;;;2074267;28;20185;-57
2022/03/14 02:21:30;;;;;;;11.93;10.75;;;;;;;;;;2080234;28;20219;-55
2022/03/14 02:22:30;;;;;;;12.48;11.27;;;;;;;;;;2081120;28;20246;-57
2022/03/14 02:23:30;;;;;;;12.73;11.52;;;;;;;;;;2080497;28;20208;-58
2022/03/14 02:24:31;;;;;;;12.00;10.80;;;;;;;;;;2080061;28;20164;-58
2022/03/14 02:25:34;;;;;;;11.73;10.65;;;;;;;;;;2079984;28;20660;-57
2022/03/14 02:26:39;;;;;;;13.00;11.13;;;;;;;;;;2072098;28;20194;-57
2022/03/14 02:27:39;;;;;;;11.73;10.25;;;;;;;;;;2079869;28;20189;-61
2022/03/14 02:28:39;;;;;;;11.88;10.80;;;;;;;;;;2080544;28;20187;-56
2022/03/14 02:29:41;;;;;;;12.80;10.75;;;;;;;;;;2081210;28;20242;-56
2022/03/14 02:30:42;;;;;;;12.60;11.05;;;;;;;;;;2072848;28;20608;-56
2022/03/14 02:31:44;;;;;;;12.85;11.20;;;;;;;;;;2079881;28;20176;-56
2022/03/14 02:32:45;;;;;;;12.73;11.43;;;;;;;;;;2080769;28;20187;-54
2022/03/14 02:33:45;;;;;;;12.25;11.07;;;;;;;;;;2080570;28;20195;-57
2022/03/14 02:34:46;;;;;;;12.45;11.15;;;;;;;;;;2080776;28;20215;-58
2022/03/14 02:35:46;;;;;;;12.07;10.90;;;;;;;;;;2076284;28;20181;-59
2022/03/14 02:36:47;;;;;;;13.52;12.07;;;;;;;;;;2080791;28;20657;-59
2022/03/14 02:37:47;;;;;;;13.10;11.70;;;;;;;;;;2075770;28;20172;-57
2022/03/14 02:38:49;;;;;;;12.50;11.20;;;;;;;;;;2081292;28;20173;-59
2022/03/14 02:39:49;;;;;;;11.63;10.43;;;;;;;;;;2075802;28;20180;-58
2022/03/14 02:40:50;;;;;;;11.85;10.45;;;;;;;;;;2081248;28;20188;-59
2022/03/14 02:41:50;;;;;;;13.75;11.77;;;;;;;;;;2081218;28;20180;-60
2022/03/14 02:42:51;;;;;;;11.82;10.73;;;;;;;;;;2076399;28;20646;-56
2022/03/14 02:43:51;;;;;;;12.65;11.35;;;;;;;;;;2085662;28;20203;-61
2022/03/14 02:44:52;;;;;;;12.30;11.07;;;;;;;;;;2080753;28;20169;-61
2022/03/14 02:45:52;;;;;;;11.77;10.68;;;;;;;;;;2080477;28;20172;-57
2022/03/14 02:46:55;;;;;;;12.27;11.02;;;;;;;;;;2080996;28;20152;-56
2022/03/14 02:47:55;;;;;;;11.55;10.45;;;;;;;;;;2080647;28;20180;-59
2022/03/14 02:48:55;;;;;;;12.70;11.48;;;;;;;;;;2080963;28;20693;-56
2022/03/14 02:49:56;;;;;;;12.93;11.65;;;;;;;;;;2080403;28;20172;-55
2022/03/14 02:50:56;;;;;;;12.05;10.85;;;;;;;;;;2080692;28;20176;-58
2022/03/14 02:51:56;;;;;;;12.18;10.98;;;;;;;;;;2078766;28;20172;-55
2022/03/14 02:52:57;;;;;;;11.95;10.73;;;;;;;;;;2076254;28;20645;-56
2022/03/14 02:53:57;;;;;;;12.02;10.73;;;;;;;;;;2079205;28;20183;-60
2022/03/14 02:54:57;;;;;;;11.45;10.35;;;;;;;;;;2076832;28;20203;-56
2022/03/14 02:55:58;;;;;;;11.90;10.60;;;;;;;;;;2079836;28;20172;-57
2022/03/14 02:56:58;;;;;;;12.00;10.70;;;;;;;;;;2080599;28;20229;-58
2022/03/14 02:57:59;;;;;;;12.38;11.20;;;;;;;;;;2080898;28;20208;-60
2022/03/14 02:58:59;;;;;;;13.05;11.50;;;;;;;;;;2078968;28;20165;-57
2022/03/14 02:59:59;;;;;;;12.27;11.07;;;;;;;;;;2076550;28;20179;-58
2022/03/14 03:01:00;;;;;;;13.23;11.82;;;;;;;;;;2078938;28;20248;-56
2022/03/14 03:02:00;;;;;;;12.00;10.73;;;;;;;;;;2072752;28;20169;-57
2022/03/14 03:03:02;;;;;;;12.07;10.88;;;;;;;;;;2075414;28;20184;-57
2022/03/14 03:04:03;;;;;;;12.68;11.38;;;;;;;;;;2080359;28;20172;-58
2022/03/14 03:05:05;;;;;;;13.57;11.05;;;;;;;;;;2081313;28;20234;-57
2022/03/14 03:06:07;;;;;;;13.18;11.88;;;;;;;;;;2077656;28;20172;-61
2022/03/14 03:07:08;;;;;;;11.25;10.18;;;;;;;;;;2077686;28;20180;-58
2022/03/14 03:08:08;;;;;;;12.00;10.90;;;;;;;;;;2081769;28;20175;-56
2022/03/14 03:09:08;;;;;;;12.43;11.23;;;;;;;;;;2082717;28;20192;-58
2022/03/14 03:10:09;;;;;;;11.95;10.68;;;;;;;;;;2082553;28;20208;-58
2022/03/14 03:11:09;;;;;;;12.38;11.05;;;;;;;;;;2082387;28;20172;-59
2022/03/14 03:12:12;;;;;;;11.35;10.25;;;;;;;;;;2074256;28;20173;-58
2022/03/14 03:13:12;;;;;;;12.48;11.27;;;;;;;;;;2079022;28;20203;-57
2022/03/14 03:14:12;;;;;;;12.23;11.05;;;;;;;;;;2076965;28;20173;-58
2022/03/14 03:15:15;;;;;;;12.55;11.35;;;;;;;;;;2078147;28;20192;-57
2022/03/14 03:16:16;;;;;;;11.85;10.75;;;;;;;;;;2077262;28;20168;-53
2022/03/14 03:17:18;;;;;;;12.77;11.48;;;;;;;;;;2080913;28;20189;-58
2022/03/14 03:18:18;;;;;;;12.85;11.38;;;;;;;;;;2082738;28;20180;-57
2022/03/14 03:19:18;;;;;;;13.02;11.05;;;;;;;;;;2085716;28;20645;-55
2022/03/14 03:20:19;;;;;;;12.13;10.70;;;;;;;;;;2084603;28;20188;-56
2022/03/14 03:21:19;;;;;;;12.32;11.02;;;;;;;;;;2082341;28;20168;-56
2022/03/14 03:22:20;;;;;;;11.77;10.57;;;;;;;;;;2082870;28;20177;-57
2022/03/14 03:23:20;;;;;;;12.40;11.02;;;;;;;;;;2082894;28;20200;-57
2022/03/14 03:24:20;;;;;;;13.02;11.82;;;;;;;;;;2082623;28;20175;-58
2022/03/14 03:25:20;;;;;;;12.00;10.80;;;;;;;;;;2083108;28;20180;-56
2022/03/14 03:26:21;;;;;;;12.25;10.60;;;;;;;;;;2082441;28;20168;-56
2022/03/14 03:27:21;;;;;;;12.55;11.25;;;;;;;;;;2082121;28;20222;-56
2022/03/14 03:28:22;;;;;;;11.55;10.45;;;;;;;;;;2083033;28;20165;-57
2022/03/14 03:29:23;;;;;;;12.77;11.57;;;;;;;;;;2082365;28;20201;-55
2022/03/14 03:30:24;;;;;;;12.25;11.13;;;;;;;;;;2082517;28;20179;-54
2022/03/14 03:31:25;;;;;;;13.70;12.30;;;;;;;;;;2082553;28;20247;-58
2022/03/14 03:32:25;;;;;;;13.30;12.00;;;;;;;;;;2083121;28;20161;-57
2022/03/14 03:33:25;;;;;;;13.10;11.80;;;;;;;;;;2082150;28;20675;-57
2022/03/14 03:34:26;;;;;;;12.15;10.93;;;;;;;;;;2081844;28;20180;-55
2022/03/14 03:35:26;;;;;;;14.00;12.60;;;;;;;;;;2082750;28;20200;-56
2022/03/14 03:36:26;;;;;;;14.43;11.95;;;;;;;;;;2082778;28;20238;-56
2022/03/14 03:37:27;;;;;;;16.35;12.65;;;;;;;;;;2082682;28;20675;-57
2022/03/14 03:38:27;;;;;;;13.70;12.30;;;;;;;;;;2082935;28;20604;-58
2022/03/14 03:39:28;;;;;;;15.32;13.48;;;;;;;;;;2082721;28;20204;-55
2022/03/14 03:40:28;;;;;;;14.32;12.82;;;;;;;;;;2082809;28;20184;-58
2022/03/14 03:41:28;;;;;;;14.73;13.15;;;;;;;;;;2082871;28;20180;-57
2022/03/14 03:42:29;;;;;;;14.02;12.63;;;;;;;;;;2082848;28;20311;-58
2022/03/14 03:43:29;;;;;;;14.00;12.57;;;;;;;;;;2073840;28;20295;-58
2022/03/14 03:44:30;;;;;;;13.95;12.65;;;;;;;;;;2073708;28;20181;-57
2022/03/14 03:45:32;;;;;;;13.95;12.55;;;;;;;;;;2074083;28;20196;-57
2022/03/14 03:46:33;;;;;;;15.50;12.57;;;;;;;;;;2082433;28;20183;-56
2022/03/14 03:47:35;;;;;;;13.75;12.35;;;;;;;;;;2082653;28;20164;-57
2022/03/14 03:48:36;;;;;;;14.77;13.32;;;;;;;;;;2082722;28;20255;-58
2022/03/14 03:49:38;;;;;;;14.48;13.15;;;;;;;;;;2080225;28;20227;-56
2022/03/14 03:50:38;;;;;;;14.48;12.98;;;;;;;;;;2080838;28;20186;-58
2022/03/14 03:51:38;;;;;;;14.38;12.88;;;;;;;;;;2081128;28;20176;-57
2022/03/14 03:52:38;;;;;;;14.43;12.75;;;;;;;;;;2065650;28;20169;-54
2022/03/14 03:53:39;;;;;;;14.57;13.07;;;;;;;;;;2075023;28;20300;-58
2022/03/14 03:54:39;;;;;;;14.43;12.93;;;;;;;;;;2081644;28;20229;-57
2022/03/14 03:55:39;;;;;;;14.10;12.70;;;;;;;;;;2076877;28;20243;-57
2022/03/14 03:56:39;;;;;;;14.02;12.02;;;;;;;;;;2082707;28;20183;-57
2022/03/14 03:57:40;;;;;;;13.85;12.35;;;;;;;;;;2082318;28;20200;-59
2022/03/14 03:58:40;;;;;;;14.85;13.35;;;;;;;;;;2076508;28;20189;-62
2022/03/14 03:59:40;;;;;;;15.30;13.70;;;;;;;;;;2082488;28;20200;-57
2022/03/14 04:00:41;;;;;;;14.18;12.75;;;;;;;;;;2076841;28;20213;-59
2022/03/14 04:01:43;;;;;;;15.20;13.65;;;;;;;;;;2082037;28;20689;-58
2022/03/14 04:02:44;;;;;;;15.68;14.18;;;;;;;;;;2082447;28;20172;-57
2022/03/14 04:03:46;;;;;;;15.00;13.48;;;;;;;;;;2082349;28;20894;-56
2022/03/14 04:04:47;;;;;;;15.57;13.95;;;;;;;;;;2082042;28;20704;-60
2022/03/14 04:05:48;;;;;;;14.98;13.48;;;;;;;;;;2082442;28;20180;-58
2022/03/14 04:06:55;;;;;;;15.95;14.25;;;;;;;;;;2074408;28;20223;-56
2022/03/14 04:07:57;;;;;;;13.77;12.45;;;;;;;;;;2077021;28;20165;-54
2022/03/14 04:09:00;;;;;;;14.98;13.52;;;;;;;;;;2083414;28;20180;-57
2022/03/14 04:10:01;;;;;;;18.92;14.93;;;;;;;;;;2079463;28;20172;-57
2022/03/14 04:11:04;;;;;;;15.60;14.00;;;;;;;;;;2078670;28;20211;-57
2022/03/14 04:12:05;;;;;;;14.40;13.00;;;;;;;;;;2074199;28;20642;-55
2022/03/14 04:13:06;;;;;;;15.60;13.98;;;;;;;;;;2073736;28;20188;-58
2022/03/14 04:14:07;;;;;;;16.13;14.13;;;;;;;;;;2082076;28;20203;-57
2022/03/14 04:15:09;;;;;;;14.85;13.35;;;;;;;;;;2080239;28;20168;-59
2022/03/14 04:16:09;;;;;;;17.10;15.30;;;;;;;;;;2083568;28;20184;-59
2022/03/14 04:17:09;;;;;;;14.98;13.45;;;;;;;;;;2075133;28;20169;-56
2022/03/14 04:18:10;;;;;;;15.32;13.82;;;;;;;;;;2073789;28;20215;-55
2022/03/14 04:19:10;;;;;;;16.60;14.90;;;;;;;;;;2081278;28;20196;-56
2022/03/14 04:20:13;;;;;;;16.30;14.65;;;;;;;;;;2091425;22;20237;-60
2022/03/14 04:21:14;;;;;;;21.08;15.52;;;;;;;;;;2073316;28;20271;-60
2022/03/14 04:22:15;;;;;;;16.45;14.85;;;;;;;;;;2069340;28;20173;-60
2022/03/14 04:23:17;;;;;;;16.13;14.43;;;;;;;;;;2073585;28;20220;-62
2022/03/14 04:24:17;;;;;;;17.50;14.63;;;;;;;;;;2069869;28;20575;-60
2022/03/14 04:25:18;;;;;;;16.50;13.80;;;;;;;;;;2068943;28;20180;-60
2022/03/14 04:26:18;;;;;;;16.27;14.73;;;;;;;;;;2074164;28;20173;-61
2022/03/14 04:27:18;;;;;;;15.63;14.13;;;;;;;;;;2070274;28;20185;-59
2022/03/14 04:28:19;;;;;;;15.48;13.98;;;;;;;;;;2069157;28;20203;-60
2022/03/14 04:29:19;;;;;;;16.33;14.73;;;;;;;;;;2074265;28;20203;-60
2022/03/14 04:30:19;;;;;;;17.13;15.32;;;;;;;;;;2073404;28;20272;-62
2022/03/14 04:31:21;;;;;;;16.25;14.35;;;;;;;;;;2071226;28;20181;-62
2022/03/14 04:32:23;;;;;;;17.15;15.55;;;;;;;;;;2067549;28;20202;-63
2022/03/14 04:33:23;;;;;;;16.67;15.05;;;;;;;;;;2069135;28;20184;-61
2022/03/14 04:34:24;;;;;;;16.23;14.50;;;;;;;;;;2063419;28;20204;-61
2022/03/14 04:35:24;;;;;;;17.95;16.05;;;;;;;;;;2073562;28;20173;-62
2022/03/14 04:36:24;;;;;;;16.50;14.73;;;;;;;;;;2071298;28;20200;-60
2022/03/14 04:37:24;;;;;;;17.98;16.10;;;;;;;;;;2072403;28;20181;-62
2022/03/14 04:38:25;;;;;;;17.60;15.63;;;;;;;;;;2074027;28;20173;-60
2022/03/14 04:39:27;;;;;;;17.35;15.65;;;;;;;;;;2070665;28;20170;-60
2022/03/14 04:40:27;;;;;;;18.05;16.17;;;;;;;;;;2072213;28;20188;-60
2022/03/14 04:41:27;;;;;;;16.52;14.85;;;;;;;;;;2073814;28;20180;-61
2022/03/14 04:42:28;;;;;;;17.30;15.68;;;;;;;;;;2066310;28;20300;-60
2022/03/14 04:43:28;;;;;;;17.67;15.93;;;;;;;;;;2067826;28;20213;-60
2022/03/14 04:44:29;;;;;;;19.15;16.63;;;;;;;;;;2065420;28;20672;-60
2022/03/14 04:45:29;;;;;;;17.85;16.00;;;;;;;;;;2072987;28;20204;-60
2022/03/14 04:46:29;;;;;;;17.98;16.25;;;;;;;;;;2060526;28;20162;-62
2022/03/14 04:47:29;;;;;;;18.27;16.42;;;;;;;;;;2071601;28;20177;-61
2022/03/14 04:48:30;;;;;;;17.83;15.95;;;;;;;;;;2073378;28;20629;-61
2022/03/14 04:49:30;;;;;;;18.27;16.42;;;;;;;;;;2070363;28;20200;-60
2022/03/14 04:50:31;;;;;;;17.75;15.95;;;;;;;;;;2073731;28;20263;-60
2022/03/14 04:51:32;;;;;;;18.70;16.80;;;;;;;;;;2073805;28;20204;-61
2022/03/14 04:52:33;;;;;;;18.25;16.35;;;;;;;;;;2065157;28;20700;-60
2022/03/14 04:53:34;;;;;;;18.45;16.65;;;;;;;;;;2073094;28;20177;-60
2022/03/14 04:54:36;;;;;;;19.45;17.42;;;;;;;;;;2073653;28;20184;-61
2022/03/14 04:55:36;;;;;;;18.42;16.60;;;;;;;;;;2073606;28;20593;-62
2022/03/14 04:56:37;;;;;;;21.55;17.98;;;;;;;;;;2064929;28;20197;-63
2022/03/14 04:57:37;;;;;;;17.98;16.08;;;;;;;;;;2064533;28;20269;-62
2022/03/14 04:58:37;;;;;;;19.25;17.25;;;;;;;;;;2065274;28;20173;-61
2022/03/14 04:59:37;;;;;;;20.70;17.95;;;;;;;;;;2065299;28;20225;-60
2022/03/14 05:00:38;;;;;;;18.80;16.90;;;;;;;;;;2073986;28;20184;-61
2022/03/14 05:01:40;;;;;;;19.10;16.33;;;;;;;;;;2074007;28;20216;-62
2022/03/14 05:02:40;;;;;;;18.77;16.77;;;;;;;;;;2074065;28;20164;-61
2022/03/14 05:03:40;;;;;;;20.08;18.15;;;;;;;;;;2073824;28;20270;-59
2022/03/14 05:04:41;;;;;;;19.88;17.52;;;;;;;;;;2073528;28;20238;-57
2022/03/14 05:05:41;;;;;;;19.67;17.65;;;;;;;;;;2073902;28;20201;-64
2022/03/14 05:06:42;;;;;;;21.20;17.73;;;;;;;;;;2073832;28;20177;-59
2022/03/14 05:07:42;;;;;;;19.55;17.55;;;;;;;;;;2073929;28;20168;-58
2022/03/14 05:08:42;;;;;;;19.17;17.08;;;;;;;;;;2073972;28;20595;-59
2022/03/14 05:09:43;;;;;;;20.13;18.02;;;;;;;;;;2073864;28;20176;-60
2022/03/14 05:10:43;;;;;;;20.60;18.17;;;;;;;;;;2073987;28;20176;-60
2022/03/14 05:11:44;;;;;;;20.92;18.65;;;;;;;;;;2073789;28;20238;-59
2022/03/14 05:12:44;;;;;;;21.67;19.25;;;;;;;;;;2065152;28;20178;-60
2022/03/14 05:13:44;;;;;;;21.98;19.23;;;;;;;;;;2065049;28;20347;-58
2022/03/14 05:14:44;;;;;;;20.73;18.27;;;;;;;;;;2073273;28;20169;-58
2022/03/14 05:15:45;;;;;;;22.52;19.20;;;;;;;;;;2065073;28;20177;-60
2022/03/14 05:16:47;;;;;;;22.15;19.75;;;;;;;;;;2056880;28;20186;-57
2022/03/14 05:17:48;;;;;;;22.10;19.27;;;;;;;;;;2065408;28;20180;-60
2022/03/14 05:18:48;;;;;;;23.52;19.40;;;;;;;;;;2073736;28;20239;-61
2022/03/14 05:19:48;;;;;;;23.42;20.92;;;;;;;;;;2065010;28;20195;-61
2022/03/14 05:20:48;;;;;;;25.95;21.23;;;;;;;;;;2065766;28;20199;-58
2022/03/14 05:21:49;;;;;;;33.60;27.38;;;;;;;;;;2074238;28;20184;-62
2022/03/14 05:22:49;;;;;;;31.02;27.27;;;;;;;;;;2073835;28;20184;-60
2022/03/14 05:23:50;;;;;;;24.92;21.10;;;;;;;;;;2073804;28;20196;-60
2022/03/14 05:24:50;;;;;;;22.35;19.88;;;;;;;;;;2073600;28;20629;-58
2022/03/14 05:25:50;;;;;;;29.98;24.80;;;;;;;;;;2073994;28;20259;-58
2022/03/14 05:26:52;;;;;;;42.30;29.45;;;;;;;;;;2065058;28;20162;-60
2022/03/14 05:27:53;;;;;;;67.55;48.97;;;;;;;;;;2065201;28;20161;-61
2022/03/14 05:28:54;;;;;;;24.05;21.42;;;;;;;;;;2072443;28;20185;-59
2022/03/14 05:29:54;;;;;;;26.17;21.00;;;;;;;;;;2072884;28;20176;-60
2022/03/14 05:30:54;;;;;;;22.00;19.70;;;;;;;;;;2072420;28;20188;-62
2022/03/14 05:31:55;;;;;;;29.80;22.98;;;;;;;;;;2073210;28;20296;-60
2022/03/14 05:32:55;;;;;;;27.85;22.77;;;;;;;;;;2073076;28;20172;-60
2022/03/14 05:33:55;;;;;;;24.88;20.83;;;;;;;;;;2073555;28;20228;-60
2022/03/14 05:34:55;;;;;;;25.73;20.55;;;;;;;;;;2073815;28;20164;-60
2022/03/14 05:35:56;;;;;;;25.00;20.83;;;;;;;;;;2073995;28;20603;-60
2022/03/14 05:36:58;;;;;;;24.13;21.35;;;;;;;;;;2073624;28;20176;-58
2022/03/14 05:37:58;;;;;;;25.42;21.52;;;;;;;;;;2070394;28;20169;-60
2022/03/14 05:38:58;;;;;;;31.00;22.92;;;;;;;;;;2062927;28;20670;-57
2022/03/14 05:39:58;;;;;;;28.17;22.42;;;;;;;;;;2069262;28;20200;-59
2022/03/14 05:40:59;;;;;;;27.95;22.30;;;;;;;;;;2072935;28;20239;-56
2022/03/14 05:41:59;;;;;;;27.50;22.27;;;;;;;;;;2073110;28;20199;-60
2022/03/14 05:43:04;;;;;;;23.63;20.65;;;;;;;;;;2072243;28;20165;-58
2022/03/14 05:44:05;;;;;;;27.08;22.15;;;;;;;;;;2072652;28;20176;-62
2022/03/14 05:45:08;;;;;;;25.25;20.77;;;;;;;;;;2068781;28;20260;-60
2022/03/14 05:46:09;;;;;;;28.70;21.88;;;;;;;;;;2070546;28;20255;-58
2022/03/14 05:47:09;;;;;;;28.73;23.55;;;;;;;;;;2073695;28;20482;-55
2022/03/14 05:48:10;;;;;;;26.92;21.83;;;;;;;;;;2072481;28;20200;-56
2022/03/14 05:49:10;;;;;;;28.20;23.48;;;;;;;;;;2073238;28;20196;-56
2022/03/14 05:50:11;;;;;;;29.55;23.35;;;;;;;;;;2070649;28;20232;-58
2022/03/14 05:51:11;;;;;;;27.17;22.30;;;;;;;;;;2068380;28;20176;-59
2022/03/14 05:52:12;;;;;;;26.88;22.08;;;;;;;;;;2067928;28;20208;-58
2022/03/14 05:53:12;;;;;;;26.95;23.08;;;;;;;;;;2059675;28;20249;-59